sensor_id;sensor_type;location;lat;lon;timestamp;pressure;altitude;pressure_sealevel;temperature;humidity
10852;BME280;5479;52.046;6.314;2023-02-10T00:01:38;103446.19;;;1.18;100.00
10852;BME280;5479;52.046;6.314;2023-02-10T00:04:09;103444.38;;;1.14;100.00
10852;BME280;5479;52.046;6.314;2023-02-10T00:06:37;103448.66;;;1.12;100.00
10852;BME280;5479;52.046;6.314;2023-02-10T00:09:07;103445.06;;;1.06;100.00
10852;BME280;5479;52.046;6.314;2023-02-10T00:11:35;103452.06;;;1.10;100.00
10852;BME280;5479;52.046;6.314;2023-02-10T00:14:20;103452.97;;;1.10;100.00
10852;BME280;5479;52.046;6.314;2023-02-10T00:16:49;103465.13;;;1.08;100.00
10852;BME280;5479;52.046;6.314;2023-02-10T00:19:23;103465.03;;;1.05;100.00
10852;BME280;5479;52.046;6.314;2023-02-10T00:21:51;103469.25;;;0.99;100.00
10852;BME280;5479;52.046;6.314;2023-02-10T00:24:21;103474.25;;;0.90;100.00
10852;BME280;5479;52.046;6.314;2023-02-10T00:26:49;103470.56;;;0.80;100.00
10852;BME280;5479;52.046;6.314;2023-02-10T00:29:18;103471.25;;;0.73;100.00
10852;BME280;5479;52.046;6.314;2023-02-10T00:31:46;103460.66;;;0.67;100.00
10852;BME280;5479;52.046;6.314;2023-02-10T00:34:16;103470.25;;;0.68;100.00
10852;BME280;5479;52.046;6.314;2023-02-10T00:36:48;103476.28;;;0.64;100.00
10852;BME280;5479;52.046;6.314;2023-02-10T00:39:17;103471.88;;;0.62;100.00
10852;BME280;5479;52.046;6.314;2023-02-10T00:41:45;103470.75;;;0.52;100.00
10852;BME280;5479;52.046;6.314;2023-02-10T00:44:13;103465.53;;;0.52;100.00
10852;BME280;5479;52.046;6.314;2023-02-10T00:46:41;103468.06;;;0.49;100.00
10852;BME280;5479;52.046;6.314;2023-02-10T00:49:10;103468.97;;;0.51;100.00
10852;BME280;5479;52.046;6.314;2023-02-10T00:51:38;103472.88;;;0.68;100.00
10852;BME280;5479;52.046;6.314;2023-02-10T00:54:08;103473.19;;;0.80;100.00
10852;BME280;5479;52.046;6.314;2023-02-10T00:56:35;103488.13;;;0.89;100.00
10852;BME280;5479;52.046;6.314;2023-02-10T00:59:03;103473.44;;;0.92;100.00
10852;BME280;5479;52.046;6.314;2023-02-10T01:01:31;103480.63;;;1.02;100.00
10852;BME280;5479;52.046;6.314;2023-02-10T01:03:59;103486.88;;;1.09;100.00
10852;BME280;5479;52.046;6.314;2023-02-10T01:06:27;103491.44;;;1.17;100.00
10852;BME280;5479;52.046;6.314;2023-02-10T01:08:55;103485.56;;;1.28;100.00
10852;BME280;5479;52.046;6.314;2023-02-10T01:11:25;103482.94;;;1.28;100.00
10852;BME280;5479;52.046;6.314;2023-02-10T01:13:53;103486.44;;;1.30;100.00
10852;BME280;5479;52.046;6.314;2023-02-10T01:16:21;103485.72;;;1.37;100.00
10852;BME280;5479;52.046;6.314;2023-02-10T01:18:49;103482.28;;;1.39;100.00
10852;BME280;5479;52.046;6.314;2023-02-10T01:21:18;103493.69;;;1.43;100.00
10852;BME280;5479;52.046;6.314;2023-02-10T01:23:47;103493.75;;;1.46;100.00
10852;BME280;5479;52.046;6.314;2023-02-10T01:26:16;103483.25;;;1.43;100.00
10852;BME280;5479;52.046;6.314;2023-02-10T01:28:46;103491.13;;;1.44;100.00
10852;BME280;5479;52.046;6.314;2023-02-10T01:31:16;103496.47;;;1.50;100.00
10852;BME280;5479;52.046;6.314;2023-02-10T01:33:46;103499.94;;;1.49;100.00
10852;BME280;5479;52.046;6.314;2023-02-10T01:36:16;103500.84;;;1.50;100.00
10852;BME280;5479;52.046;6.314;2023-02-10T01:38:45;103501.75;;;1.52;100.00
10852;BME280;5479;52.046;6.314;2023-02-10T01:41:14;103500.84;;;1.50;100.00
10852;BME280;5479;52.046;6.314;2023-02-10T01:44:00;103500.78;;;1.48;100.00
10852;BME280;5479;52.046;6.314;2023-02-10T01:46:30;103494.72;;;1.49;100.00
10852;BME280;5479;52.046;6.314;2023-02-10T01:49:00;103491.97;;;1.43;100.00
10852;BME280;5479;52.046;6.314;2023-02-10T01:51:36;103487.78;;;1.51;100.00
10852;BME280;5479;52.046;6.314;2023-02-10T01:54:10;103493.97;;;1.55;100.00
10852;BME280;5479;52.046;6.314;2023-02-10T01:56:42;103493.00;;;1.50;100.00
10852;BME280;5479;52.046;6.314;2023-02-10T01:59:12;103491.31;;;1.53;100.00
10852;BME280;5479;52.046;6.314;2023-02-10T02:01:40;103493.22;;;1.60;100.00
10852;BME280;5479;52.046;6.314;2023-02-10T02:04:08;103487.03;;;1.57;100.00
10852;BME280;5479;52.046;6.314;2023-02-10T02:06:36;103500.16;;;1.60;100.00
10852;BME280;5479;52.046;6.314;2023-02-10T02:09:05;103482.84;;;1.65;100.00
10852;BME280;5479;52.046;6.314;2023-02-10T02:11:38;103490.75;;;1.68;100.00
10852;BME280;5479;52.046;6.314;2023-02-10T02:14:17;103489.88;;;1.69;100.00
10852;BME280;5479;52.046;6.314;2023-02-10T02:17:01;103494.41;;;1.76;100.00
10852;BME280;5479;52.046;6.314;2023-02-10T02:19:54;103505.69;;;1.75;100.00
10852;BME280;5479;52.046;6.314;2023-02-10T02:22:59;103498.69;;;1.74;100.00
10852;BME280;5479;52.046;6.314;2023-02-10T02:25:38;103499.75;;;1.83;100.00
10852;BME280;5479;52.046;6.314;2023-02-10T02:28:19;103497.09;;;1.82;100.00
10852;BME280;5479;52.046;6.314;2023-02-10T02:31:14;103502.50;;;1.90;100.00
10852;BME280;5479;52.046;6.314;2023-02-10T02:33:48;103495.44;;;1.86;100.00
10852;BME280;5479;52.046;6.314;2023-02-10T02:36:23;103504.44;;;2.01;100.00
10852;BME280;5479;52.046;6.314;2023-02-10T02:38:51;103494.56;;;1.85;100.00
10852;BME280;5479;52.046;6.314;2023-02-10T02:41:27;103490.34;;;1.93;100.00
10852;BME280;5479;52.046;6.314;2023-02-10T02:43:56;103498.09;;;1.87;100.00
10852;BME280;5479;52.046;6.314;2023-02-10T02:46:33;103501.69;;;1.92;100.00
10852;BME280;5479;52.046;6.314;2023-02-10T02:49:09;103505.22;;;1.96;100.00
10852;BME280;5479;52.046;6.314;2023-02-10T02:51:46;103505.25;;;1.97;100.00
10852;BME280;5479;52.046;6.314;2023-02-10T02:54:21;103512.00;;;1.86;100.00
10852;BME280;5479;52.046;6.314;2023-02-10T02:56:57;103510.34;;;1.91;100.00
10852;BME280;5479;52.046;6.314;2023-02-10T02:59:30;103513.88;;;1.93;100.00
10852;BME280;5479;52.046;6.314;2023-02-10T03:02:01;103520.81;;;1.91;100.00
10852;BME280;5479;52.046;6.314;2023-02-10T03:04:33;103524.22;;;1.87;100.00
10852;BME280;5479;52.046;6.314;2023-02-10T03:07:02;103525.91;;;1.85;100.00
10852;BME280;5479;52.046;6.314;2023-02-10T03:09:30;103524.25;;;1.90;100.00
10852;BME280;5479;52.046;6.314;2023-02-10T03:11:59;103517.44;;;1.95;100.00
10852;BME280;5479;52.046;6.314;2023-02-10T03:14:27;103515.66;;;1.94;100.00
10852;BME280;5479;52.046;6.314;2023-02-10T03:16:55;103510.28;;;1.88;100.00
10852;BME280;5479;52.046;6.314;2023-02-10T03:19:23;103514.63;;;1.88;100.00
10852;BME280;5479;52.046;6.314;2023-02-10T03:21:54;103520.63;;;1.82;100.00
10852;BME280;5479;52.046;6.314;2023-02-10T03:24:24;103525.91;;;1.83;100.00
10852;BME280;5479;52.046;6.314;2023-02-10T03:26:52;103514.47;;;1.78;100.00
10852;BME280;5479;52.046;6.314;2023-02-10T03:29:21;103516.34;;;1.86;100.00
10852;BME280;5479;52.046;6.314;2023-02-10T03:31:50;103515.47;;;1.85;100.00
10852;BME280;5479;52.046;6.314;2023-02-10T03:34:18;103513.72;;;1.84;100.00
10852;BME280;5479;52.046;6.314;2023-02-10T03:36:48;103517.22;;;1.85;100.00
10852;BME280;5479;52.046;6.314;2023-02-10T03:39:18;103519.84;;;1.86;100.00
10852;BME280;5479;52.046;6.314;2023-02-10T03:41:46;103522.25;;;1.77;100.00
10852;BME280;5479;52.046;6.314;2023-02-10T03:44:13;103516.97;;;1.74;100.00
10852;BME280;5479;52.046;6.314;2023-02-10T03:46:42;103520.47;;;1.73;100.00
10852;BME280;5479;52.046;6.314;2023-02-10T03:49:10;103513.44;;;1.70;100.00
10852;BME280;5479;52.046;6.314;2023-02-10T03:51:38;103527.19;;;1.63;100.00
10852;BME280;5479;52.046;6.314;2023-02-10T03:54:05;103519.38;;;1.63;100.00
10852;BME280;5479;52.046;6.314;2023-02-10T03:56:35;103525.41;;;1.61;100.00
10852;BME280;5479;52.046;6.314;2023-02-10T03:59:03;103520.94;;;1.55;100.00
10852;BME280;5479;52.046;6.314;2023-02-10T04:01:33;103521.91;;;1.59;100.00
10852;BME280;5479;52.046;6.314;2023-02-10T04:04:01;103514.94;;;1.58;100.00
10852;BME280;5479;52.046;6.314;2023-02-10T04:06:29;103516.66;;;1.59;100.00
10852;BME280;5479;52.046;6.314;2023-02-10T04:08:57;103511.38;;;1.56;100.00
10852;BME280;5479;52.046;6.314;2023-02-10T04:11:25;103517.28;;;1.47;100.00
10852;BME280;5479;52.046;6.314;2023-02-10T04:13:54;103510.31;;;1.46;100.00
10852;BME280;5479;52.046;6.314;2023-02-10T04:16:22;103515.41;;;1.40;100.00
10852;BME280;5479;52.046;6.314;2023-02-10T04:18:54;103517.94;;;1.36;100.00
10852;BME280;5479;52.046;6.314;2023-02-10T04:21:22;103517.03;;;1.35;100.00
10852;BME280;5479;52.046;6.314;2023-02-10T04:23:51;103516.09;;;1.32;100.00
10852;BME280;5479;52.046;6.314;2023-02-10T04:26:19;103517.75;;;1.28;100.00
10852;BME280;5479;52.046;6.314;2023-02-10T04:28:47;103517.63;;;1.23;100.00
10852;BME280;5479;52.046;6.314;2023-02-10T04:31:16;103522.88;;;1.23;100.00
10852;BME280;5479;52.046;6.314;2023-02-10T04:33:44;103519.34;;;1.21;100.00
10852;BME280;5479;52.046;6.314;2023-02-10T04:36:12;103518.59;;;1.26;100.00
10852;BME280;5479;52.046;6.314;2023-02-10T04:38:40;103519.50;;;1.28;100.00
10852;BME280;5479;52.046;6.314;2023-02-10T04:41:09;103524.50;;;1.18;100.00
10852;BME280;5479;52.046;6.314;2023-02-10T04:43:36;103533.19;;;1.17;100.00
10852;BME280;5479;52.046;6.314;2023-02-10T04:46:04;103534.03;;;1.16;100.00
10852;BME280;5479;52.046;6.314;2023-02-10T04:48:34;103534.75;;;1.09;100.00
10852;BME280;5479;52.046;6.314;2023-02-10T04:51:07;103524.97;;;1.02;100.00
10852;BME280;5479;52.046;6.314;2023-02-10T04:53:36;103540.63;;;1.01;100.00
10852;BME280;5479;52.046;6.314;2023-02-10T04:56:04;103552.72;;;0.97;100.00
10852;BME280;5479;52.046;6.314;2023-02-10T04:58:33;103555.16;;;0.91;100.00
10852;BME280;5479;52.046;6.314;2023-02-10T05:01:00;103557.59;;;0.84;100.00
10852;BME280;5479;52.046;6.314;2023-02-10T05:03:28;103557.44;;;0.78;100.00
10852;BME280;5479;52.046;6.314;2023-02-10T05:05:59;103573.84;;;0.72;100.00
10852;BME280;5479;52.046;6.314;2023-02-10T05:08:27;103565.78;;;0.63;100.00
10852;BME280;5479;52.046;6.314;2023-02-10T05:10:55;103562.97;;;0.55;100.00
10852;BME280;5479;52.046;6.314;2023-02-10T05:13:23;103562.81;;;0.49;100.00
10852;BME280;5479;52.046;6.314;2023-02-10T05:15:50;103564.34;;;0.43;100.00
10852;BME280;5479;52.046;6.314;2023-02-10T05:18:19;103558.06;;;0.35;100.00
10852;BME280;5479;52.046;6.314;2023-02-10T05:20:47;103563.22;;;0.32;100.00
10852;BME280;5479;52.046;6.314;2023-02-10T05:23:16;103554.25;;;0.22;100.00
10852;BME280;5479;52.046;6.314;2023-02-10T05:25:44;103546.50;;;0.24;100.00
10852;BME280;5479;52.046;6.314;2023-02-10T05:28:12;103552.50;;;0.21;100.00
10852;BME280;5479;52.046;6.314;2023-02-10T05:30:40;103553.31;;;0.19;100.00
10852;BME280;5479;52.046;6.314;2023-02-10T05:33:08;103545.34;;;0.14;100.00
10852;BME280;5479;52.046;6.314;2023-02-10T05:35:36;103539.19;;;0.11;100.00
10852;BME280;5479;52.046;6.314;2023-02-10T05:38:04;103549.47;;;0.06;100.00
10852;BME280;5479;52.046;6.314;2023-02-10T05:40:34;103549.44;;;0.05;100.00
10852;BME280;5479;52.046;6.314;2023-02-10T05:43:02;103547.75;;;0.07;100.00
10852;BME280;5479;52.046;6.314;2023-02-10T05:45:31;103555.38;;;-0.01;100.00
10852;BME280;5479;52.046;6.314;2023-02-10T05:47:59;103552.50;;;-0.10;100.00
10852;BME280;5479;52.046;6.314;2023-02-10T05:50:27;103561.00;;;-0.16;100.00
10852;BME280;5479;52.046;6.314;2023-02-10T05:52:56;103549.66;;;-0.18;100.00
10852;BME280;5479;52.046;6.314;2023-02-10T05:55:23;103563.59;;;-0.16;100.00
10852;BME280;5479;52.046;6.314;2023-02-10T05:57:53;103561.97;;;-0.14;100.00
10852;BME280;5479;52.046;6.314;2023-02-10T06:00:21;103555.88;;;-0.13;100.00
10852;BME280;5479;52.046;6.314;2023-02-10T06:02:49;103556.78;;;-0.12;100.00
10852;BME280;5479;52.046;6.314;2023-02-10T06:05:17;103556.78;;;-0.12;100.00
10852;BME280;5479;52.046;6.314;2023-02-10T06:07:45;103554.16;;;-0.14;100.00
10852;BME280;5479;52.046;6.314;2023-02-10T06:10:16;103552.38;;;-0.15;100.00
10852;BME280;5479;52.046;6.314;2023-02-10T06:12:44;103549.84;;;-0.12;100.00
10852;BME280;5479;52.046;6.314;2023-02-10T06:15:13;103549.97;;;-0.07;100.00
10852;BME280;5479;52.046;6.314;2023-02-10T06:17:44;103546.44;;;-0.09;100.00
10852;BME280;5479;52.046;6.314;2023-02-10T06:20:12;103543.78;;;-0.11;100.00
10852;BME280;5479;52.046;6.314;2023-02-10T06:22:40;103544.66;;;-0.10;100.00
10852;BME280;5479;52.046;6.314;2023-02-10T06:25:08;103543.03;;;-0.07;100.00
10852;BME280;5479;52.046;6.314;2023-02-10T06:27:35;103538.84;;;-0.02;100.00
10852;BME280;5479;52.046;6.314;2023-02-10T06:30:04;103537.06;;;-0.03;100.00
10852;BME280;5479;52.046;6.314;2023-02-10T06:32:34;103537.00;;;-0.06;100.00
10852;BME280;5479;52.046;6.314;2023-02-10T06:35:03;103549.19;;;-0.05;100.00
10852;BME280;5479;52.046;6.314;2023-02-10T06:37:31;103551.94;;;0.00;100.00
10852;BME280;5479;52.046;6.314;2023-02-10T06:39:58;103546.72;;;0.00;100.00
10852;BME280;5479;52.046;6.314;2023-02-10T06:42:28;103550.34;;;0.05;100.00
10852;BME280;5479;52.046;6.314;2023-02-10T06:44:56;103551.19;;;0.06;100.00
10852;BME280;5479;52.046;6.314;2023-02-10T06:47:24;103549.34;;;0.02;100.00
10852;BME280;5479;52.046;6.314;2023-02-10T06:49:54;103554.66;;;0.05;100.00
10852;BME280;5479;52.046;6.314;2023-02-10T06:52:21;103555.78;;;0.14;100.00
10852;BME280;5479;52.046;6.314;2023-02-10T06:54:50;103559.94;;;0.08;100.00
10852;BME280;5479;52.046;6.314;2023-02-10T06:57:19;103558.16;;;0.07;100.00
10852;BME280;5479;52.046;6.314;2023-02-10T06:59:47;103558.19;;;0.08;100.00
10852;BME280;5479;52.046;6.314;2023-02-10T07:02:14;103556.75;;;0.18;100.00
10852;BME280;5479;52.046;6.314;2023-02-10T07:04:42;103560.28;;;0.20;100.00
10852;BME280;5479;52.046;6.314;2023-02-10T07:07:12;103564.66;;;0.21;100.00
10852;BME280;5479;52.046;6.314;2023-02-10T07:09:40;103570.97;;;0.29;100.00
10852;BME280;5479;52.046;6.314;2023-02-10T07:12:08;103579.78;;;0.34;100.00
10852;BME280;5479;52.046;6.314;2023-02-10T07:14:36;103577.25;;;0.37;100.00
10852;BME280;5479;52.046;6.314;2023-02-10T07:17:05;103579.94;;;0.40;100.00
10852;BME280;5479;52.046;6.314;2023-02-10T07:19:33;103588.78;;;0.45;100.00
10852;BME280;5479;52.046;6.314;2023-02-10T07:22:02;103585.38;;;0.49;100.00
10852;BME280;5479;52.046;6.314;2023-02-10T07:24:35;103585.72;;;0.61;100.00
10852;BME280;5479;52.046;6.314;2023-02-10T07:27:04;103582.34;;;0.65;100.00
10852;BME280;5479;52.046;6.314;2023-02-10T07:29:32;103590.13;;;0.64;100.00
10852;BME280;5479;52.046;6.314;2023-02-10T07:32:00;103582.50;;;0.71;100.00
10852;BME280;5479;52.046;6.314;2023-02-10T07:34:28;103586.09;;;0.76;100.00
10852;BME280;5479;52.046;6.314;2023-02-10T07:36:57;103579.34;;;0.84;100.00
10852;BME280;5479;52.046;6.314;2023-02-10T07:39:26;103577.81;;;0.92;100.00
10852;BME280;5479;52.046;6.314;2023-02-10T07:41:55;103576.03;;;0.91;100.00
10852;BME280;5479;52.046;6.314;2023-02-10T07:44:23;103583.19;;;0.98;100.00
10852;BME280;5479;52.046;6.314;2023-02-10T07:46:52;103586.78;;;1.03;100.00
10852;BME280;5479;52.046;6.314;2023-02-10T07:49:20;103583.25;;;1.01;100.00
10852;BME280;5479;52.046;6.314;2023-02-10T07:51:48;103596.25;;;1.00;100.00
10852;BME280;5479;52.046;6.314;2023-02-10T07:54:16;103593.09;;;1.13;100.00
10852;BME280;5479;52.046;6.314;2023-02-10T07:56:44;103602.00;;;1.21;100.00
10852;BME280;5479;52.046;6.314;2023-02-10T07:59:13;103597.56;;;1.18;100.00
10852;BME280;5479;52.046;6.314;2023-02-10T08:01:41;103601.19;;;1.23;100.00
10852;BME280;5479;52.046;6.314;2023-02-10T08:04:09;103595.28;;;1.32;100.00
10852;BME280;5479;52.046;6.314;2023-02-10T08:06:38;103604.91;;;1.35;100.00
10852;BME280;5479;52.046;6.314;2023-02-10T08:09:06;103603.44;;;1.46;100.00
10852;BME280;5479;52.046;6.314;2023-02-10T08:11:35;103615.75;;;1.50;100.00
10852;BME280;5479;52.046;6.314;2023-02-10T08:14:04;103624.41;;;1.49;100.00
10852;BME280;5479;52.046;6.314;2023-02-10T08:16:33;103621.00;;;1.53;100.00
10852;BME280;5479;52.046;6.314;2023-02-10T08:19:01;103635.00;;;1.55;100.00
10852;BME280;5479;52.046;6.314;2023-02-10T08:21:29;103630.84;;;1.63;100.00
10852;BME280;5479;52.046;6.314;2023-02-10T08:23:57;103646.75;;;1.73;100.00
10852;BME280;5479;52.046;6.314;2023-02-10T08:26:25;103640.88;;;1.85;100.00
10852;BME280;5479;52.046;6.314;2023-02-10T08:28:53;103647.28;;;1.98;100.00
10852;BME280;5479;52.046;6.314;2023-02-10T08:31:21;103644.56;;;1.93;100.00
10852;BME280;5479;52.046;6.314;2023-02-10T08:33:51;103646.19;;;1.88;100.00
10852;BME280;5479;52.046;6.314;2023-02-10T08:36:20;103648.88;;;1.91;100.00
10852;BME280;5479;52.046;6.314;2023-02-10T08:38:49;103640.41;;;2.03;100.00
10852;BME280;5479;52.046;6.314;2023-02-10T08:41:19;103633.69;;;2.15;100.00
10852;BME280;5479;52.046;6.314;2023-02-10T08:43:48;103628.75;;;2.29;100.00
10852;BME280;5479;52.046;6.314;2023-02-10T08:46:19;103633.38;;;2.43;100.00
10852;BME280;5479;52.046;6.314;2023-02-10T08:48:47;103629.38;;;2.62;100.00
10852;BME280;5479;52.046;6.314;2023-02-10T08:51:16;103626.53;;;2.49;100.00
10852;BME280;5479;52.046;6.314;2023-02-10T08:53:45;103638.91;;;2.59;100.00
10852;BME280;5479;52.046;6.314;2023-02-10T08:56:15;103633.69;;;2.59;100.00
10852;BME280;5479;52.046;6.314;2023-02-10T08:58:44;103629.16;;;2.50;100.00
10852;BME280;5479;52.046;6.314;2023-02-10T09:01:14;103629.34;;;2.59;100.00
10852;BME280;5479;52.046;6.314;2023-02-10T09:03:43;103623.09;;;2.53;100.00
10852;BME280;5479;52.046;6.314;2023-02-10T09:06:15;103624.03;;;2.56;100.00
10852;BME280;5479;52.046;6.314;2023-02-10T09:08:45;103631.84;;;2.55;100.00
10852;BME280;5479;52.046;6.314;2023-02-10T09:11:14;103627.56;;;2.57;100.00
10852;BME280;5479;52.046;6.314;2023-02-10T09:13:42;103628.59;;;2.68;100.00
10852;BME280;5479;52.046;6.314;2023-02-10T09:16:11;103635.66;;;2.72;100.00
10852;BME280;5479;52.046;6.314;2023-02-10T09:18:39;103633.22;;;2.81;100.00
10852;BME280;5479;52.046;6.314;2023-02-10T09:21:08;103631.63;;;2.89;100.00
10852;BME280;5479;52.046;6.314;2023-02-10T09:23:36;103632.78;;;3.06;100.00
10852;BME280;5479;52.046;6.314;2023-02-10T09:26:06;103642.31;;;3.02;100.00
10852;BME280;5479;52.046;6.314;2023-02-10T09:28:34;103644.06;;;3.02;100.00
10852;BME280;5479;52.046;6.314;2023-02-10T09:31:04;103645.25;;;3.22;100.00
10852;BME280;5479;52.046;6.314;2023-02-10T09:33:32;103652.41;;;3.32;100.00
10852;BME280;5479;52.046;6.314;2023-02-10T09:36:01;103653.44;;;3.42;100.00
10852;BME280;5479;52.046;6.314;2023-02-10T09:38:29;103645.53;;;3.40;100.00
10852;BME280;5479;52.046;6.314;2023-02-10T09:41:07;103643.84;;;3.42;100.00
10852;BME280;5479;52.046;6.314;2023-02-10T09:43:54;103653.13;;;3.24;100.00
10852;BME280;5479;52.046;6.314;2023-02-10T09:46:30;103643.03;;;3.48;100.00
10852;BME280;5479;52.046;6.314;2023-02-10T09:49:13;103642.41;;;3.62;100.00
10852;BME280;5479;52.046;6.314;2023-02-10T09:51:50;103646.00;;;3.71;100.00
10852;BME280;5479;52.046;6.314;2023-02-10T09:54:22;103641.66;;;3.71;100.00
10852;BME280;5479;52.046;6.314;2023-02-10T09:56:52;103639.22;;;3.85;100.00
10852;BME280;5479;52.046;6.314;2023-02-10T09:59:21;103646.44;;;4.01;100.00
10852;BME280;5479;52.046;6.314;2023-02-10T10:01:56;103644.88;;;4.18;100.00
10852;BME280;5479;52.046;6.314;2023-02-10T10:04:27;103649.09;;;4.04;100.00
10852;BME280;5479;52.046;6.314;2023-02-10T10:07:11;103651.81;;;4.11;100.00
10852;BME280;5479;52.046;6.314;2023-02-10T10:09:44;103652.78;;;4.19;100.00
10852;BME280;5479;52.046;6.314;2023-02-10T10:12:16;103643.16;;;4.20;100.00
10852;BME280;5479;52.046;6.314;2023-02-10T10:14:45;103642.34;;;4.25;100.00
10852;BME280;5479;52.046;6.314;2023-02-10T10:17:33;103651.22;;;4.37;100.00
10852;BME280;5479;52.046;6.314;2023-02-10T10:20:21;103656.75;;;4.59;100.00
10852;BME280;5479;52.046;6.314;2023-02-10T10:23:00;103651.38;;;4.49;100.00
10852;BME280;5479;52.046;6.314;2023-02-10T10:25:49;103647.75;;;4.38;100.00
10852;BME280;5479;52.046;6.314;2023-02-10T10:28:28;103642.75;;;4.60;100.00
10852;BME280;5479;52.046;6.314;2023-02-10T10:31:03;103650.97;;;4.94;100.00
10852;BME280;5479;52.046;6.314;2023-02-10T10:33:37;103646.63;;;4.97;100.00
10852;BME280;5479;52.046;6.314;2023-02-10T10:36:11;103644.09;;;5.08;100.00
10852;BME280;5479;52.046;6.314;2023-02-10T10:38:44;103647.56;;;5.07;100.00
10852;BME280;5479;52.046;6.314;2023-02-10T10:41:15;103645.84;;;5.12;100.00
10852;BME280;5479;52.046;6.314;2023-02-10T10:43:48;103646.94;;;5.35;100.00
10852;BME280;5479;52.046;6.314;2023-02-10T10:46:23;103650.56;;;5.51;100.00
10852;BME280;5479;52.046;6.314;2023-02-10T10:48:54;103643.53;;;5.49;100.00
10852;BME280;5479;52.046;6.314;2023-02-10T10:51:22;103641.81;;;5.55;100.00
10852;BME280;5479;52.046;6.314;2023-02-10T10:53:54;103634.81;;;5.58;100.00
10852;BME280;5479;52.046;6.314;2023-02-10T10:56:29;103632.25;;;5.70;100.00
10852;BME280;5479;52.046;6.314;2023-02-10T10:59:12;103638.56;;;5.95;100.00
10852;BME280;5479;52.046;6.314;2023-02-10T11:01:43;103642.94;;;5.90;100.00
10852;BME280;5479;52.046;6.314;2023-02-10T11:04:13;103629.69;;;5.78;100.00
10852;BME280;5479;52.046;6.314;2023-02-10T11:06:45;103641.19;;;5.90;100.00
10852;BME280;5479;52.046;6.314;2023-02-10T11:09:22;103636.84;;;6.01;100.00
10852;BME280;5479;52.046;6.314;2023-02-10T11:11:53;103637.72;;;6.00;100.00
10852;BME280;5479;52.046;6.314;2023-02-10T11:14:25;103634.31;;;6.27;100.00
10852;BME280;5479;52.046;6.314;2023-02-10T11:16:58;103630.06;;;6.81;100.00
10852;BME280;5479;52.046;6.314;2023-02-10T11:19:29;103615.06;;;7.60;100.00
10852;BME280;5479;52.046;6.314;2023-02-10T11:21:57;103602.53;;;8.19;100.00
10852;BME280;5479;52.046;6.314;2023-02-10T11:24:28;103613.06;;;8.34;100.00
10852;BME280;5479;52.046;6.314;2023-02-10T11:26:59;103598.00;;;8.50;100.00
10852;BME280;5479;52.046;6.314;2023-02-10T11:29:31;103592.63;;;9.59;100.00
10852;BME280;5479;52.046;6.314;2023-02-10T11:32:00;103589.31;;;10.15;100.00
10852;BME280;5479;52.046;6.314;2023-02-10T11:34:30;103583.97;;;10.20;100.00
10852;BME280;5479;52.046;6.314;2023-02-10T11:37:09;103577.78;;;10.79;100.00
10852;BME280;5479;52.046;6.314;2023-02-10T11:39:39;103567.34;;;11.20;100.00
10852;BME280;5479;52.046;6.314;2023-02-10T11:42:17;103563.28;;;11.91;100.00
10852;BME280;5479;52.046;6.314;2023-02-10T11:44:55;103564.84;;;12.01;94.84
10852;BME280;5479;52.046;6.314;2023-02-10T11:47:24;103561.25;;;12.04;99.26
10852;BME280;5479;52.046;6.314;2023-02-10T11:49:54;103557.56;;;12.85;95.52
10852;BME280;5479;52.046;6.314;2023-02-10T11:52:24;103553.03;;;13.56;82.96
10852;BME280;5479;52.046;6.314;2023-02-10T11:54:56;103551.50;;;13.15;82.09
10852;BME280;5479;52.046;6.314;2023-02-10T11:57:37;103558.59;;;13.14;80.44
10852;BME280;5479;52.046;6.314;2023-02-10T12:00:34;103542.56;;;12.82;80.06
10852;BME280;5479;52.046;6.314;2023-02-10T12:03:28;103544.34;;;12.46;86.33
10852;BME280;5479;52.046;6.314;2023-02-10T12:06:05;103543.41;;;12.49;87.35
10852;BME280;5479;52.046;6.314;2023-02-10T12:08:41;103542.41;;;12.15;86.87
10852;BME280;5479;52.046;6.314;2023-02-10T12:11:19;103543.34;;;12.14;89.93
10852;BME280;5479;52.046;6.314;2023-02-10T12:14:02;103526.22;;;11.87;88.67
10852;BME280;5479;52.046;6.314;2023-02-10T12:16:44;103537.38;;;11.14;95.09
10852;BME280;5479;52.046;6.314;2023-02-10T12:19:22;103535.75;;;11.07;98.42
10852;BME280;5479;52.046;6.314;2023-02-10T12:22:03;103535.06;;;10.96;100.00
10852;BME280;5479;52.046;6.314;2023-02-10T12:27:47;103543.34;;;10.77;100.00
10852;BME280;5479;52.046;6.314;2023-02-10T12:30:27;103539.69;;;10.84;100.00
10852;BME280;5479;52.046;6.314;2023-02-10T12:33:10;103538.22;;;10.65;100.00
10852;BME280;5479;52.046;6.314;2023-02-10T12:35:54;103537.59;;;10.50;100.00
10852;BME280;5479;52.046;6.314;2023-02-10T12:38:31;103528.59;;;10.60;100.00
10852;BME280;5479;52.046;6.314;2023-02-10T12:41:09;103527.94;;;9.83;100.00
10852;BME280;5479;52.046;6.314;2023-02-10T12:43:48;103528.97;;;9.71;100.00
10852;BME280;5479;52.046;6.314;2023-02-10T12:46:25;103531.91;;;9.49;100.00
10852;BME280;5479;52.046;6.314;2023-02-10T12:49:10;103522.34;;;9.36;100.00
10852;BME280;5479;52.046;6.314;2023-02-10T12:51:48;103512.63;;;9.38;100.00
10852;BME280;5479;52.046;6.314;2023-02-10T12:54:26;103517.53;;;8.89;100.00
10852;BME280;5479;52.046;6.314;2023-02-10T12:56:59;103513.97;;;8.96;100.00
10852;BME280;5479;52.046;6.314;2023-02-10T12:59:33;103510.38;;;9.00;100.00
10852;BME280;5479;52.046;6.314;2023-02-10T13:02:06;103506.06;;;8.93;100.00
10852;BME280;5479;52.046;6.314;2023-02-10T13:04:42;103495.31;;;9.08;100.00
10852;BME280;5479;52.046;6.314;2023-02-10T13:07:19;103505.94;;;9.02;100.00
10852;BME280;5479;52.046;6.314;2023-02-10T13:09:56;103501.66;;;8.92;100.00
10852;BME280;5479;52.046;6.314;2023-02-10T13:12:27;103494.56;;;8.94;100.00
10852;BME280;5479;52.046;6.314;2023-02-10T13:14:59;103489.28;;;8.94;100.00
10852;BME280;5479;52.046;6.314;2023-02-10T13:17:38;103490.84;;;9.13;100.00
10852;BME280;5479;52.046;6.314;2023-02-10T13:20:22;103498.00;;;9.05;100.00
10852;BME280;5479;52.046;6.314;2023-02-10T13:22:55;103491.03;;;8.96;100.00
10852;BME280;5479;52.046;6.314;2023-02-10T13:25:32;103494.44;;;9.07;100.00